sensor_id;sensor_type;location;lat;lon;timestamp;P1;durP1;ratioP1;P2;durP2;ratioP2
21814;SDS011;11069;48.988;8.450;2023-06-22T00:00:27;6.28;;;4.20;;
21814;SDS011;11069;48.988;8.450;2023-06-22T00:02:53;4.40;;;3.88;;
21814;SDS011;11069;48.988;8.450;2023-06-22T00:05:19;6.90;;;4.47;;
21814;SDS011;11069;48.988;8.450;2023-06-22T00:07:45;5.60;;;4.20;;
21814;SDS011;11069;48.988;8.450;2023-06-22T00:10:11;6.43;;;4.65;;
21814;SDS011;11069;48.988;8.450;2023-06-22T00:12:37;7.72;;;4.43;;
21814;SDS011;11069;48.988;8.450;2023-06-22T00:15:03;4.95;;;4.25;;
21814;SDS011;11069;48.988;8.450;2023-06-22T00:17:29;5.60;;;4.10;;
21814;SDS011;11069;48.988;8.450;2023-06-22T00:19:55;5.97;;;4.30;;
21814;SDS011;11069;48.988;8.450;2023-06-22T00:22:23;6.65;;;4.55;;
21814;SDS011;11069;48.988;8.450;2023-06-22T00:24:53;6.20;;;4.22;;
21814;SDS011;11069;48.988;8.450;2023-06-22T00:27:19;6.78;;;4.30;;
21814;SDS011;11069;48.988;8.450;2023-06-22T00:29:45;8.18;;;4.55;;
21814;SDS011;11069;48.988;8.450;2023-06-22T00:32:10;11.25;;;5.30;;
21814;SDS011;11069;48.988;8.450;2023-06-22T00:34:36;5.47;;;4.20;;
21814;SDS011;11069;48.988;8.450;2023-06-22T00:37:03;7.00;;;4.75;;
21814;SDS011;11069;48.988;8.450;2023-06-22T00:39:29;12.07;;;5.95;;
21814;SDS011;11069;48.988;8.450;2023-06-22T00:41:56;7.10;;;5.13;;
21814;SDS011;11069;48.988;8.450;2023-06-22T00:44:21;8.75;;;5.75;;
21814;SDS011;11069;48.988;8.450;2023-06-22T00:46:47;9.55;;;6.45;;
21814;SDS011;11069;48.988;8.450;2023-06-22T00:49:13;10.23;;;6.43;;
21814;SDS011;11069;48.988;8.450;2023-06-22T00:51:39;7.20;;;5.85;;
21814;SDS011;11069;48.988;8.450;2023-06-22T00:54:12;8.50;;;6.05;;
21814;SDS011;11069;48.988;8.450;2023-06-22T00:56:39;9.82;;;6.10;;
21814;SDS011;11069;48.988;8.450;2023-06-22T00:59:05;8.05;;;6.22;;
21814;SDS011;11069;48.988;8.450;2023-06-22T01:01:31;8.55;;;5.68;;
21814;SDS011;11069;48.988;8.450;2023-06-22T01:03:59;9.40;;;5.72;;
21814;SDS011;11069;48.988;8.450;2023-06-22T01:06:29;10.95;;;7.00;;
21814;SDS011;11069;48.988;8.450;2023-06-22T01:09:13;9.23;;;6.85;;
21814;SDS011;11069;48.988;8.450;2023-06-22T01:11:45;8.45;;;6.57;;
21814;SDS011;11069;48.988;8.450;2023-06-22T01:16:39;11.75;;;7.15;;
21814;SDS011;11069;48.988;8.450;2023-06-22T01:21:39;10.63;;;7.45;;
21814;SDS011;11069;48.988;8.450;2023-06-22T01:24:20;8.98;;;6.97;;
21814;SDS011;11069;48.988;8.450;2023-06-22T01:26:57;10.48;;;7.10;;
21814;SDS011;11069;48.988;8.450;2023-06-22T01:29:26;9.02;;;6.35;;
21814;SDS011;11069;48.988;8.450;2023-06-22T01:31:53;12.10;;;7.13;;
21814;SDS011;11069;48.988;8.450;2023-06-22T01:34:20;9.55;;;7.47;;
21814;SDS011;11069;48.988;8.450;2023-06-22T01:36:47;10.38;;;7.50;;
21814;SDS011;11069;48.988;8.450;2023-06-22T01:39:13;9.85;;;7.57;;
21814;SDS011;11069;48.988;8.450;2023-06-22T01:41:39;11.10;;;7.47;;
21814;SDS011;11069;48.988;8.450;2023-06-22T01:44:07;10.00;;;7.35;;
21814;SDS011;11069;48.988;8.450;2023-06-22T01:46:36;10.35;;;8.13;;
21814;SDS011;11069;48.988;8.450;2023-06-22T01:49:02;13.07;;;7.88;;
21814;SDS011;11069;48.988;8.450;2023-06-22T01:51:28;10.55;;;7.75;;
21814;SDS011;11069;48.988;8.450;2023-06-22T01:53:54;11.02;;;7.90;;
21814;SDS011;11069;48.988;8.450;2023-06-22T01:56:20;12.43;;;8.88;;
21814;SDS011;11069;48.988;8.450;2023-06-22T01:59:09;12.35;;;7.72;;
21814;SDS011;11069;48.988;8.450;2023-06-22T02:01:35;10.75;;;7.85;;
21814;SDS011;11069;48.988;8.450;2023-06-22T02:04:07;12.00;;;8.20;;
21814;SDS011;11069;48.988;8.450;2023-06-22T02:06:36;11.02;;;8.13;;
21814;SDS011;11069;48.988;8.450;2023-06-22T02:09:06;12.13;;;7.18;;
21814;SDS011;11069;48.988;8.450;2023-06-22T02:11:33;11.43;;;8.25;;
21814;SDS011;11069;48.988;8.450;2023-06-22T02:14:00;10.80;;;8.02;;
21814;SDS011;11069;48.988;8.450;2023-06-22T02:16:26;9.93;;;7.32;;
21814;SDS011;11069;48.988;8.450;2023-06-22T02:18:56;11.57;;;8.07;;
21814;SDS011;11069;48.988;8.450;2023-06-22T02:23:52;10.35;;;7.13;;
21814;SDS011;11069;48.988;8.450;2023-06-22T02:26:18;12.68;;;8.48;;
21814;SDS011;11069;48.988;8.450;2023-06-22T02:28:44;11.88;;;8.23;;
21814;SDS011;11069;48.988;8.450;2023-06-22T02:31:11;12.00;;;8.65;;
21814;SDS011;11069;48.988;8.450;2023-06-22T02:33:37;10.02;;;7.68;;
21814;SDS011;11069;48.988;8.450;2023-06-22T02:36:03;15.52;;;9.65;;
21814;SDS011;11069;48.988;8.450;2023-06-22T02:38:30;11.25;;;8.32;;
21814;SDS011;11069;48.988;8.450;2023-06-22T02:40:59;11.40;;;8.40;;
21814;SDS011;11069;48.988;8.450;2023-06-22T02:43:25;12.25;;;8.05;;
21814;SDS011;11069;48.988;8.450;2023-06-22T02:45:51;12.35;;;9.05;;
21814;SDS011;11069;48.988;8.450;2023-06-22T02:48:17;12.55;;;8.77;;
21814;SDS011;11069;48.988;8.450;2023-06-22T02:50:43;11.98;;;8.85;;
21814;SDS011;11069;48.988;8.450;2023-06-22T02:53:09;12.05;;;8.68;;
21814;SDS011;11069;48.988;8.450;2023-06-22T02:55:35;10.07;;;7.57;;
21814;SDS011;11069;48.988;8.450;2023-06-22T02:58:01;11.80;;;8.68;;
21814;SDS011;11069;48.988;8.450;2023-06-22T03:00:29;14.40;;;8.93;;
21814;SDS011;11069;48.988;8.450;2023-06-22T03:02:56;10.38;;;8.60;;
21814;SDS011;11069;48.988;8.450;2023-06-22T03:05:22;13.77;;;9.05;;
21814;SDS011;11069;48.988;8.450;2023-06-22T03:07:48;13.73;;;8.85;;
21814;SDS011;11069;48.988;8.450;2023-06-22T03:10:15;11.20;;;8.18;;
21814;SDS011;11069;48.988;8.450;2023-06-22T03:12:42;12.90;;;9.07;;
21814;SDS011;11069;48.988;8.450;2023-06-22T03:15:11;12.27;;;8.38;;
21814;SDS011;11069;48.988;8.450;2023-06-22T03:17:38;12.27;;;8.88;;
21814;SDS011;11069;48.988;8.450;2023-06-22T03:20:05;11.80;;;8.30;;
21814;SDS011;11069;48.988;8.450;2023-06-22T03:22:40;11.07;;;8.63;;
21814;SDS011;11069;48.988;8.450;2023-06-22T03:25:07;12.15;;;8.15;;
21814;SDS011;11069;48.988;8.450;2023-06-22T03:27:40;11.55;;;8.10;;
21814;SDS011;11069;48.988;8.450;2023-06-22T03:30:07;10.73;;;8.07;;
21814;SDS011;11069;48.988;8.450;2023-06-22T03:32:33;13.45;;;8.10;;
21814;SDS011;11069;48.988;8.450;2023-06-22T03:34:59;12.80;;;8.45;;
21814;SDS011;11069;48.988;8.450;2023-06-22T03:37:25;12.18;;;9.27;;
21814;SDS011;11069;48.988;8.450;2023-06-22T03:39:51;10.82;;;8.57;;
21814;SDS011;11069;48.988;8.450;2023-06-22T03:42:17;10.38;;;8.30;;
21814;SDS011;11069;48.988;8.450;2023-06-22T03:44:43;11.82;;;9.55;;
21814;SDS011;11069;48.988;8.450;2023-06-22T03:47:09;12.13;;;8.75;;
21814;SDS011;11069;48.988;8.450;2023-06-22T03:49:35;14.20;;;10.52;;
21814;SDS011;11069;48.988;8.450;2023-06-22T03:52:02;13.82;;;9.45;;
21814;SDS011;11069;48.988;8.450;2023-06-22T03:54:28;13.75;;;8.70;;
21814;SDS011;11069;48.988;8.450;2023-06-22T03:56:55;11.88;;;8.88;;
21814;SDS011;11069;48.988;8.450;2023-06-22T03:59:22;12.88;;;9.02;;
21814;SDS011;11069;48.988;8.450;2023-06-22T04:01:47;11.98;;;9.18;;
21814;SDS011;11069;48.988;8.450;2023-06-22T04:04:14;12.23;;;8.82;;
21814;SDS011;11069;48.988;8.450;2023-06-22T04:06:39;11.27;;;8.95;;
21814;SDS011;11069;48.988;8.450;2023-06-22T04:09:06;11.52;;;8.65;;
21814;SDS011;11069;48.988;8.450;2023-06-22T04:11:32;14.38;;;8.93;;
21814;SDS011;11069;48.988;8.450;2023-06-22T04:13:58;13.23;;;8.50;;
21814;SDS011;11069;48.988;8.450;2023-06-22T04:16:24;13.30;;;8.63;;
21814;SDS011;11069;48.988;8.450;2023-06-22T04:18:49;11.52;;;8.55;;
21814;SDS011;11069;48.988;8.450;2023-06-22T04:21:15;14.25;;;8.90;;
21814;SDS011;11069;48.988;8.450;2023-06-22T04:23:41;13.32;;;9.60;;
21814;SDS011;11069;48.988;8.450;2023-06-22T04:26:08;13.13;;;9.02;;
21814;SDS011;11069;48.988;8.450;2023-06-22T04:28:34;15.48;;;10.70;;
21814;SDS011;11069;48.988;8.450;2023-06-22T04:31:01;14.15;;;9.93;;
21814;SDS011;11069;48.988;8.450;2023-06-22T04:33:27;13.23;;;9.43;;
21814;SDS011;11069;48.988;8.450;2023-06-22T04:35:56;14.13;;;10.00;;
21814;SDS011;11069;48.988;8.450;2023-06-22T04:38:23;14.95;;;10.13;;
21814;SDS011;11069;48.988;8.450;2023-06-22T04:40:49;12.75;;;9.55;;
21814;SDS011;11069;48.988;8.450;2023-06-22T04:43:15;12.32;;;8.98;;
21814;SDS011;11069;48.988;8.450;2023-06-22T04:45:41;12.98;;;9.02;;
21814;SDS011;11069;48.988;8.450;2023-06-22T04:48:07;12.77;;;9.55;;
21814;SDS011;11069;48.988;8.450;2023-06-22T04:50:36;13.70;;;9.48;;
21814;SDS011;11069;48.988;8.450;2023-06-22T04:53:05;14.55;;;9.98;;
21814;SDS011;11069;48.988;8.450;2023-06-22T04:55:32;12.88;;;8.70;;
21814;SDS011;11069;48.988;8.450;2023-06-22T04:57:58;13.18;;;9.40;;
21814;SDS011;11069;48.988;8.450;2023-06-22T05:00:29;13.25;;;9.45;;
21814;SDS011;11069;48.988;8.450;2023-06-22T05:02:56;11.63;;;8.95;;
21814;SDS011;11069;48.988;8.450;2023-06-22T05:05:28;14.85;;;9.30;;
21814;SDS011;11069;48.988;8.450;2023-06-22T05:07:56;12.50;;;8.95;;
21814;SDS011;11069;48.988;8.450;2023-06-22T05:10:25;10.88;;;8.77;;
21814;SDS011;11069;48.988;8.450;2023-06-22T05:12:51;12.32;;;9.23;;
21814;SDS011;11069;48.988;8.450;2023-06-22T05:15:17;12.77;;;8.38;;
21814;SDS011;11069;48.988;8.450;2023-06-22T05:17:47;11.03;;;9.00;;
21814;SDS011;11069;48.988;8.450;2023-06-22T05:20:13;13.35;;;9.23;;
21814;SDS011;11069;48.988;8.450;2023-06-22T05:22:43;11.70;;;8.63;;
21814;SDS011;11069;48.988;8.450;2023-06-22T05:25:09;16.50;;;8.95;;
21814;SDS011;11069;48.988;8.450;2023-06-22T05:27:35;14.07;;;8.70;;
21814;SDS011;11069;48.988;8.450;2023-06-22T05:30:06;12.00;;;8.15;;
21814;SDS011;11069;48.988;8.450;2023-06-22T05:32:32;11.38;;;8.27;;
21814;SDS011;11069;48.988;8.450;2023-06-22T05:34:58;11.45;;;7.70;;
21814;SDS011;11069;48.988;8.450;2023-06-22T05:37:24;10.90;;;8.35;;
21814;SDS011;11069;48.988;8.450;2023-06-22T05:39:51;8.73;;;7.50;;
21814;SDS011;11069;48.988;8.450;2023-06-22T05:42:17;9.82;;;7.18;;
21814;SDS011;11069;48.988;8.450;2023-06-22T05:44:44;10.52;;;7.30;;
21814;SDS011;11069;48.988;8.450;2023-06-22T05:47:12;10.90;;;7.80;;
21814;SDS011;11069;48.988;8.450;2023-06-22T05:49:38;9.63;;;7.25;;
21814;SDS011;11069;48.988;8.450;2023-06-22T05:52:04;13.80;;;8.07;;
21814;SDS011;11069;48.988;8.450;2023-06-22T05:54:30;8.30;;;7.03;;
21814;SDS011;11069;48.988;8.450;2023-06-22T05:56:56;11.23;;;7.60;;
21814;SDS011;11069;48.988;8.450;2023-06-22T05:59:22;9.10;;;7.63;;
21814;SDS011;11069;48.988;8.450;2023-06-22T06:01:48;12.35;;;7.68;;
21814;SDS011;11069;48.988;8.450;2023-06-22T06:04:16;11.27;;;7.53;;
21814;SDS011;11069;48.988;8.450;2023-06-22T06:06:42;9.38;;;7.25;;
21814;SDS011;11069;48.988;8.450;2023-06-22T06:09:08;10.10;;;7.70;;
21814;SDS011;11069;48.988;8.450;2023-06-22T06:11:34;10.10;;;7.07;;
21814;SDS011;11069;48.988;8.450;2023-06-22T06:14:00;10.40;;;7.15;;
21814;SDS011;11069;48.988;8.450;2023-06-22T06:16:26;9.95;;;7.50;;
21814;SDS011;11069;48.988;8.450;2023-06-22T06:18:52;10.40;;;6.85;;
21814;SDS011;11069;48.988;8.450;2023-06-22T06:21:20;9.57;;;7.25;;
21814;SDS011;11069;48.988;8.450;2023-06-22T06:23:46;8.40;;;6.68;;
21814;SDS011;11069;48.988;8.450;2023-06-22T06:26:12;10.68;;;7.07;;
21814;SDS011;11069;48.988;8.450;2023-06-22T06:28:41;7.40;;;5.65;;
21814;SDS011;11069;48.988;8.450;2023-06-22T06:31:07;12.55;;;6.50;;
21814;SDS011;11069;48.988;8.450;2023-06-22T06:33:33;9.77;;;5.95;;
21814;SDS011;11069;48.988;8.450;2023-06-22T06:36:00;7.78;;;6.15;;
21814;SDS011;11069;48.988;8.450;2023-06-22T06:38:28;9.18;;;6.45;;
21814;SDS011;11069;48.988;8.450;2023-06-22T06:40:54;9.40;;;6.90;;
21814;SDS011;11069;48.988;8.450;2023-06-22T06:43:20;7.60;;;6.22;;
21814;SDS011;11069;48.988;8.450;2023-06-22T06:45:46;9.48;;;6.60;;
21814;SDS011;11069;48.988;8.450;2023-06-22T06:48:12;12.32;;;6.07;;
21814;SDS011;11069;48.988;8.450;2023-06-22T06:50:39;7.72;;;6.18;;
21814;SDS011;11069;48.988;8.450;2023-06-22T06:53:05;9.07;;;6.25;;
21814;SDS011;11069;48.988;8.450;2023-06-22T06:55:31;11.10;;;6.45;;
21814;SDS011;11069;48.988;8.450;2023-06-22T06:58:00;7.32;;;6.03;;
21814;SDS011;11069;48.988;8.450;2023-06-22T07:00:26;10.18;;;6.00;;
21814;SDS011;11069;48.988;8.450;2023-06-22T07:02:52;8.65;;;5.43;;
21814;SDS011;11069;48.988;8.450;2023-06-22T07:05:18;7.95;;;6.22;;
21814;SDS011;11069;48.988;8.450;2023-06-22T07:07:44;10.00;;;6.30;;
21814;SDS011;11069;48.988;8.450;2023-06-22T07:10:10;7.45;;;5.65;;
21814;SDS011;11069;48.988;8.450;2023-06-22T07:12:36;8.23;;;6.07;;
21814;SDS011;11069;48.988;8.450;2023-06-22T07:15:03;8.57;;;6.07;;
21814;SDS011;11069;48.988;8.450;2023-06-22T07:17:45;8.93;;;5.60;;
21814;SDS011;11069;48.988;8.450;2023-06-22T07:20:29;8.75;;;5.70;;
21814;SDS011;11069;48.988;8.450;2023-06-22T07:22:55;6.78;;;5.05;;
21814;SDS011;11069;48.988;8.450;2023-06-22T07:25:21;6.43;;;5.28;;
21814;SDS011;11069;48.988;8.450;2023-06-22T07:27:57;9.60;;;5.53;;
21814;SDS011;11069;48.988;8.450;2023-06-22T07:30:24;7.60;;;5.03;;
21814;SDS011;11069;48.988;8.450;2023-06-22T07:32:50;6.43;;;4.80;;
21814;SDS011;11069;48.988;8.450;2023-06-22T07:35:16;7.40;;;5.93;;
21814;SDS011;11069;48.988;8.450;2023-06-22T07:37:42;6.50;;;5.32;;
21814;SDS011;11069;48.988;8.450;2023-06-22T07:40:08;7.78;;;5.10;;
21814;SDS011;11069;48.988;8.450;2023-06-22T07:42:34;7.25;;;5.25;;
21814;SDS011;11069;48.988;8.450;2023-06-22T07:45:01;7.57;;;5.55;;
21814;SDS011;11069;48.988;8.450;2023-06-22T07:47:27;12.98;;;5.22;;
21814;SDS011;11069;48.988;8.450;2023-06-22T07:49:57;5.38;;;4.47;;
21814;SDS011;11069;48.988;8.450;2023-06-22T07:52:26;9.23;;;4.97;;
21814;SDS011;11069;48.988;8.450;2023-06-22T07:54:52;7.05;;;5.07;;
21814;SDS011;11069;48.988;8.450;2023-06-22T07:57:18;6.97;;;4.32;;
21814;SDS011;11069;48.988;8.450;2023-06-22T07:59:44;9.98;;;5.32;;
21814;SDS011;11069;48.988;8.450;2023-06-22T08:02:10;6.07;;;4.55;;
21814;SDS011;11069;48.988;8.450;2023-06-22T08:04:36;5.28;;;4.50;;
21814;SDS011;11069;48.988;8.450;2023-06-22T08:07:02;7.32;;;4.80;;
21814;SDS011;11069;48.988;8.450;2023-06-22T08:09:29;5.97;;;4.65;;
21814;SDS011;11069;48.988;8.450;2023-06-22T08:11:55;7.50;;;4.50;;
21814;SDS011;11069;48.988;8.450;2023-06-22T08:14:22;5.05;;;4.25;;
21814;SDS011;11069;48.988;8.450;2023-06-22T08:16:48;5.57;;;4.50;;
21814;SDS011;11069;48.988;8.450;2023-06-22T08:19:14;6.90;;;5.03;;
21814;SDS011;11069;48.988;8.450;2023-06-22T08:21:40;5.75;;;4.40;;
21814;SDS011;11069;48.988;8.450;2023-06-22T08:24:06;6.82;;;4.70;;
21814;SDS011;11069;48.988;8.450;2023-06-22T08:26:32;5.85;;;4.30;;
21814;SDS011;11069;48.988;8.450;2023-06-22T08:29:02;7.32;;;4.90;;
21814;SDS011;11069;48.988;8.450;2023-06-22T08:31:28;5.88;;;4.15;;
21814;SDS011;11069;48.988;8.450;2023-06-22T08:33:54;6.53;;;5.00;;
21814;SDS011;11069;48.988;8.450;2023-06-22T08:36:20;7.15;;;4.32;;
21814;SDS011;11069;48.988;8.450;2023-06-22T08:38:45;8.25;;;4.78;;
21814;SDS011;11069;48.988;8.450;2023-06-22T08:41:16;6.78;;;3.95;;
21814;SDS011;11069;48.988;8.450;2023-06-22T08:43:42;7.25;;;4.55;;
21814;SDS011;11069;48.988;8.450;2023-06-22T08:46:09;5.38;;;4.13;;
21814;SDS011;11069;48.988;8.450;2023-06-22T08:48:35;7.38;;;4.75;;
21814;SDS011;11069;48.988;8.450;2023-06-22T08:51:01;7.22;;;4.78;;
21814;SDS011;11069;48.988;8.450;2023-06-22T08:53:28;5.30;;;4.35;;
21814;SDS011;11069;48.988;8.450;2023-06-22T08:55:54;6.30;;;4.75;;
21814;SDS011;11069;48.988;8.450;2023-06-22T08:58:20;5.65;;;4.47;;
21814;SDS011;11069;48.988;8.450;2023-06-22T09:00:46;8.98;;;5.28;;
21814;SDS011;11069;48.988;8.450;2023-06-22T09:03:12;8.90;;;4.50;;
21814;SDS011;11069;48.988;8.450;2023-06-22T09:05:38;8.75;;;4.88;;
21814;SDS011;11069;48.988;8.450;2023-06-22T09:08:04;6.07;;;4.65;;
21814;SDS011;11069;48.988;8.450;2023-06-22T09:10:30;6.18;;;4.47;;
21814;SDS011;11069;48.988;8.450;2023-06-22T09:12:57;8.35;;;4.93;;
21814;SDS011;11069;48.988;8.450;2023-06-22T09:15:24;5.80;;;4.45;;
21814;SDS011;11069;48.988;8.450;2023-06-22T09:17:50;7.05;;;4.80;;
21814;SDS011;11069;48.988;8.450;2023-06-22T09:20:19;8.35;;;4.88;;
21814;SDS011;11069;48.988;8.450;2023-06-22T09:22:45;6.55;;;4.60;;
21814;SDS011;11069;48.988;8.450;2023-06-22T09:25:11;5.97;;;4.45;;
21814;SDS011;11069;48.988;8.450;2023-06-22T09:27:37;6.32;;;4.53;;
21814;SDS011;11069;48.988;8.450;2023-06-22T09:30:03;7.07;;;4.88;;
21814;SDS011;11069;48.988;8.450;2023-06-22T09:32:29;8.70;;;5.13;;
21814;SDS011;11069;48.988;8.450;2023-06-22T09:34:55;6.60;;;4.88;;
21814;SDS011;11069;48.988;8.450;2023-06-22T09:37:21;6.28;;;4.32;;
21814;SDS011;11069;48.988;8.450;2023-06-22T09:39:47;5.57;;;4.72;;
21814;SDS011;11069;48.988;8.450;2023-06-22T09:42:13;9.25;;;4.93;;
21814;SDS011;11069;48.988;8.450;2023-06-22T09:44:39;6.07;;;4.40;;
21814;SDS011;11069;48.988;8.450;2023-06-22T09:47:05;7.35;;;4.60;;
21814;SDS011;11069;48.988;8.450;2023-06-22T09:49:32;7.85;;;4.85;;
21814;SDS011;11069;48.988;8.450;2023-06-22T09:51:58;5.97;;;4.82;;
21814;SDS011;11069;48.988;8.450;2023-06-22T09:54:24;7.00;;;5.22;;
21814;SDS011;11069;48.988;8.450;2023-06-22T09:56:50;6.57;;;4.80;;
21814;SDS011;11069;48.988;8.450;2023-06-22T09:59:16;6.93;;;4.82;;
21814;SDS011;11069;48.988;8.450;2023-06-22T10:01:42;8.77;;;4.70;;
21814;SDS011;11069;48.988;8.450;2023-06-22T10:04:08;8.50;;;5.10;;
21814;SDS011;11069;48.988;8.450;2023-06-22T10:06:34;6.75;;;4.63;;
21814;SDS011;11069;48.988;8.450;2023-06-22T10:08:59;5.45;;;4.53;;
21814;SDS011;11069;48.988;8.450;2023-06-22T10:11:25;9.20;;;5.03;;
21814;SDS011;11069;48.988;8.450;2023-06-22T10:17:00;8.90;;;4.78;;
21814;SDS011;11069;48.988;8.450;2023-06-22T10:19:26;4.95;;;4.28;;
21814;SDS011;11069;48.988;8.450;2023-06-22T10:21:52;6.63;;;4.63;;
21814;SDS011;11069;48.988;8.450;2023-06-22T10:24:18;7.68;;;4.55;;
21814;SDS011;11069;48.988;8.450;2023-06-22T10:26:44;6.85;;;4.38;;
21814;SDS011;11069;48.988;8.450;2023-06-22T10:29:10;6.78;;;4.93;;
21814;SDS011;11069;48.988;8.450;2023-06-22T10:31:36;6.47;;;4.75;;
21814;SDS011;11069;48.988;8.450;2023-06-22T10:34:02;7.45;;;4.47;;
21814;SDS011;11069;48.988;8.450;2023-06-22T10:36:28;6.53;;;5.05;;
21814;SDS011;11069;48.988;8.450;2023-06-22T10:38:54;8.65;;;5.45;;
21814;SDS011;11069;48.988;8.450;2023-06-22T10:41:20;7.03;;;4.80;;
21814;SDS011;11069;48.988;8.450;2023-06-22T10:43:46;7.43;;;4.55;;
21814;SDS011;11069;48.988;8.450;2023-06-22T10:46:12;7.38;;;5.05;;
21814;SDS011;11069;48.988;8.450;2023-06-22T10:48:38;7.65;;;5.13;;
21814;SDS011;11069;48.988;8.450;2023-06-22T10:51:04;7.68;;;5.03;;
21814;SDS011;11069;48.988;8.450;2023-06-22T10:53:31;10.95;;;5.22;;
21814;SDS011;11069;48.988;8.450;2023-06-22T10:55:57;7.90;;;4.70;;
21814;SDS011;11069;48.988;8.450;2023-06-22T10:58:23;7.85;;;5.28;;
21814;SDS011;11069;48.988;8.450;2023-06-22T11:00:50;6.38;;;4.45;;
21814;SDS011;11069;48.988;8.450;2023-06-22T11:03:16;6.13;;;4.60;;
21814;SDS011;11069;48.988;8.450;2023-06-22T11:05:42;6.38;;;4.55;;
21814;SDS011;11069;48.988;8.450;2023-06-22T11:08:08;10.93;;;4.72;;
21814;SDS011;11069;48.988;8.450;2023-06-22T11:10:34;7.78;;;4.65;;
21814;SDS011;11069;48.988;8.450;2023-06-22T11:13:00;6.85;;;4.50;;
21814;SDS011;11069;48.988;8.450;2023-06-22T11:15:27;6.60;;;4.43;;
21814;SDS011;11069;48.988;8.450;2023-06-22T11:17:53;7.13;;;4.50;;
21814;SDS011;11069;48.988;8.450;2023-06-22T11:20:19;8.13;;;4.68;;
21814;SDS011;11069;48.988;8.450;2023-06-22T11:22:45;7.53;;;4.70;;
21814;SDS011;11069;48.988;8.450;2023-06-22T11:25:11;7.40;;;5.03;;
21814;SDS011;11069;48.988;8.450;2023-06-22T11:27:37;7.93;;;5.45;;
21814;SDS011;11069;48.988;8.450;2023-06-22T11:30:04;9.68;;;5.38;;
21814;SDS011;11069;48.988;8.450;2023-06-22T11:32:30;9.07;;;4.68;;
21814;SDS011;11069;48.988;8.450;2023-06-22T11:34:56;8.13;;;5.00;;
21814;SDS011;11069;48.988;8.450;2023-06-22T11:37:22;8.63;;;4.70;;
21814;SDS011;11069;48.988;8.450;2023-06-22T11:39:48;6.38;;;4.35;;
21814;SDS011;11069;48.988;8.450;2023-06-22T11:42:14;7.38;;;4.80;;
21814;SDS011;11069;48.988;8.450;2023-06-22T11:44:40;7.15;;;4.68;;
21814;SDS011;11069;48.988;8.450;2023-06-22T11:47:06;7.75;;;4.45;;
21814;SDS011;11069;48.988;8.450;2023-06-22T11:49:32;9.20;;;5.72;;
21814;SDS011;11069;48.988;8.450;2023-06-22T11:51:58;8.68;;;4.80;;
21814;SDS011;11069;48.988;8.450;2023-06-22T11:54:24;7.03;;;4.75;;
21814;SDS011;11069;48.988;8.450;2023-06-22T11:56:50;8.25;;;5.03;;
21814;SDS011;11069;48.988;8.450;2023-06-22T11:59:16;6.85;;;5.18;;
21814;SDS011;11069;48.988;8.450;2023-06-22T12:01:43;7.78;;;4.50;;
21814;SDS011;11069;48.988;8.450;2023-06-22T12:04:09;7.20;;;4.88;;
21814;SDS011;11069;48.988;8.450;2023-06-22T12:06:37;6.63;;;4.80;;
21814;SDS011;11069;48.988;8.450;2023-06-22T12:09:03;7.55;;;5.03;;
21814;SDS011;11069;48.988;8.450;2023-06-22T12:11:30;11.10;;;5.35;;
21814;SDS011;11069;48.988;8.450;2023-06-22T12:13:56;9.80;;;5.43;;
21814;SDS011;11069;48.988;8.450;2023-06-22T12:18:52;12.27;;;5.07;;
21814;SDS011;11069;48.988;8.450;2023-06-22T12:21:18;7.38;;;4.93;;
21814;SDS011;11069;48.988;8.450;2023-06-22T12:23:44;6.55;;;4.90;;
21814;SDS011;11069;48.988;8.450;2023-06-22T12:26:10;8.85;;;5.57;;
21814;SDS011;11069;48.988;8.450;2023-06-22T12:28:36;7.78;;;4.78;;
21814;SDS011;11069;48.988;8.450;2023-06-22T12:31:02;7.88;;;5.10;;
21814;SDS011;11069;48.988;8.450;2023-06-22T12:33:28;8.23;;;4.97;;
21814;SDS011;11069;48.988;8.450;2023-06-22T12:35:55;7.40;;;5.18;;
21814;SDS011;11069;48.988;8.450;2023-06-22T12:38:21;6.97;;;4.88;;
21814;SDS011;11069;48.988;8.450;2023-06-22T12:40:49;7.15;;;4.60;;
21814;SDS011;11069;48.988;8.450;2023-06-22T12:43:15;9.23;;;4.88;;
21814;SDS011;11069;48.988;8.450;2023-06-22T12:45:40;9.23;;;5.13;;
21814;SDS011;11069;48.988;8.450;2023-06-22T12:48:06;6.93;;;4.63;;
21814;SDS011;11069;48.988;8.450;2023-06-22T12:50:33;6.10;;;4.45;;
21814;SDS011;11069;48.988;8.450;2023-06-22T12:52:59;6.90;;;5.00;;
21814;SDS011;11069;48.988;8.450;2023-06-22T12:55:27;6.22;;;5.13;;
21814;SDS011;11069;48.988;8.450;2023-06-22T12:57:53;10.35;;;5.55;;
21814;SDS011;11069;48.988;8.450;2023-06-22T13:00:19;7.38;;;5.30;;
21814;SDS011;11069;48.988;8.450;2023-06-22T13:02:45;8.20;;;5.38;;
21814;SDS011;11069;48.988;8.450;2023-06-22T13:05:11;9.77;;;5.90;;
21814;SDS011;11069;48.988;8.450;2023-06-22T13:07:37;9.77;;;5.10;;
21814;SDS011;11069;48.988;8.450;2023-06-22T13:10:03;11.75;;;5.57;;
21814;SDS011;11069;48.988;8.450;2023-06-22T13:12:29;7.75;;;5.32;;
21814;SDS011;11069;48.988;8.450;2023-06-22T13:14:55;9.23;;;4.68;;
21814;SDS011;11069;48.988;8.450;2023-06-22T13:17:21;10.48;;;5.63;;
21814;SDS011;11069;48.988;8.450;2023-06-22T13:19:47;7.45;;;5.18;;
21814;SDS011;11069;48.988;8.450;2023-06-22T13:24:52;8.68;;;5.65;;
21814;SDS011;11069;48.988;8.450;2023-06-22T13:27:18;6.85;;;4.97;;
21814;SDS011;11069;48.988;8.450;2023-06-22T13:29:44;10.23;;;5.30;;
21814;SDS011;11069;48.988;8.450;2023-06-22T13:32:09;8.93;;;6.05;;
21814;SDS011;11069;48.988;8.450;2023-06-22T13:34:35;7.93;;;5.20;;
21814;SDS011;11069;48.988;8.450;2023-06-22T13:37:01;10.93;;;6.18;;
21814;SDS011;11069;48.988;8.450;2023-06-22T13:39:27;6.70;;;5.00;;
21814;SDS011;11069;48.988;8.450;2023-06-22T13:41:53;6.68;;;4.95;;
21814;SDS011;11069;48.988;8.450;2023-06-22T13:44:19;8.32;;;4.68;;
21814;SDS011;11069;48.988;8.450;2023-06-22T13:46:47;10.57;;;5.22;;
21814;SDS011;11069;48.988;8.450;2023-06-22T13:49:13;8.32;;;5.80;;
21814;SDS011;11069;48.988;8.450;2023-06-22T13:51:39;7.75;;;5.60;;
21814;SDS011;11069;48.988;8.450;2023-06-22T13:54:05;8.65;;;5.00;;
21814;SDS011;11069;48.988;8.450;2023-06-22T13:56:31;10.18;;;5.15;;
21814;SDS011;11069;48.988;8.450;2023-06-22T13:58:58;9.63;;;5.50;;
21814;SDS011;11069;48.988;8.450;2023-06-22T14:01:24;7.53;;;5.57;;
21814;SDS011;11069;48.988;8.450;2023-06-22T14:03:50;7.40;;;5.20;;
21814;SDS011;11069;48.988;8.450;2023-06-22T14:06:16;8.45;;;5.72;;
21814;SDS011;11069;48.988;8.450;2023-06-22T14:08:42;8.80;;;5.13;;
21814;SDS011;11069;48.988;8.450;2023-06-22T14:11:08;8.13;;;5.85;;
21814;SDS011;11069;48.988;8.450;2023-06-22T14:13:34;8.98;;;5.72;;
21814;SDS011;11069;48.988;8.450;2023-06-22T14:16:00;7.82;;;4.88;;
21814;SDS011;11069;48.988;8.450;2023-06-22T14:18:26;7.10;;;5.35;;
21814;SDS011;11069;48.988;8.450;2023-06-22T14:20:52;16.42;;;5.82;;
21814;SDS011;11069;48.988;8.450;2023-06-22T14:23:18;8.65;;;5.88;;
21814;SDS011;11069;48.988;8.450;2023-06-22T14:25:44;7.10;;;5.22;;
21814;SDS011;11069;48.988;8.450;2023-06-22T14:28:10;9.50;;;5.53;;
21814;SDS011;11069;48.988;8.450;2023-06-22T14:30:36;9.50;;;6.18;;
21814;SDS011;11069;48.988;8.450;2023-06-22T14:33:02;9.15;;;5.95;;
21814;SDS011;11069;48.988;8.450;2023-06-22T14:35:28;8.07;;;5.53;;
21814;SDS011;11069;48.988;8.450;2023-06-22T14:37:54;7.45;;;5.75;;
21814;SDS011;11069;48.988;8.450;2023-06-22T14:40:20;8.93;;;5.40;;
21814;SDS011;11069;48.988;8.450;2023-06-22T14:42:46;9.80;;;5.50;;
21814;SDS011;11069;48.988;8.450;2023-06-22T14:45:12;7.68;;;5.30;;
21814;SDS011;11069;48.988;8.450;2023-06-22T14:47:39;8.95;;;5.97;;
21814;SDS011;11069;48.988;8.450;2023-06-22T14:50:05;10.70;;;5.50;;
21814;SDS011;11069;48.988;8.450;2023-06-22T14:52:31;13.45;;;6.05;;
21814;SDS011;11069;48.988;8.450;2023-06-22T14:54:57;11.05;;;5.78;;